createdAt,value
2018-04-26T00:00:55.668Z,100570.77
2018-04-26T00:03:23.995Z,100565.26
2018-04-26T00:05:52.357Z,100568.98
2018-04-26T00:08:20.676Z,100571.59
2018-04-26T00:10:49.028Z,100566.06
2018-04-26T00:13:17.356Z,100573.80
2018-04-26T00:15:45.715Z,100563.94
2018-04-26T00:18:14.045Z,100560.16
2018-04-26T00:20:42.399Z,100558.44
2018-04-26T00:23:10.730Z,100555.10
2018-04-26T00:25:39.084Z,100549.99
2018-04-26T00:28:07.417Z,100548.77
2018-04-26T00:30:35.744Z,100547.84
2018-04-26T00:33:04.098Z,100549.12
2018-04-26T00:35:32.425Z,100548.84
2018-04-26T00:38:00.773Z,100553.60
2018-04-26T00:40:29.099Z,100545.90
2018-04-26T00:42:57.452Z,100543.63
2018-04-26T00:45:25.784Z,100543.23
2018-04-26T00:47:54.138Z,100541.00
2018-04-26T00:50:22.470Z,100541.80
2018-04-26T00:52:50.820Z,100540.15
2018-04-26T00:55:19.148Z,100543.77
2018-04-26T00:57:47.501Z,100548.53
2018-04-26T01:00:15.833Z,100553.36
2018-04-26T01:02:44.180Z,100549.89
2018-04-26T01:05:12.512Z,100555.02
2018-04-26T01:07:40.865Z,100551.30
2018-04-26T01:10:09.192Z,100551.80
2018-04-26T01:12:37.544Z,100544.68
2018-04-26T01:15:05.881Z,100536.58
2018-04-26T01:17:34.230Z,100548.09
2018-04-26T01:20:02.663Z,100545.95
2018-04-26T01:22:30.935Z,100539.06
2018-04-26T01:24:59.267Z,100547.97
2018-04-26T01:27:27.600Z,100541.94
2018-04-26T01:29:55.953Z,100540.52
2018-04-26T01:32:24.280Z,100540.86
2018-04-26T01:34:52.631Z,100539.45
2018-04-26T01:37:32.880Z,100535.69
2018-04-26T01:40:01.225Z,100545.63
2018-04-26T01:42:29.552Z,100541.30
2018-04-26T01:44:57.900Z,100538.67
2018-04-26T01:47:26.228Z,100545.84
2018-04-26T01:49:54.588Z,100534.19
2018-04-26T01:52:22.916Z,100534.92
2018-04-26T01:54:51.273Z,100537.05
2018-04-26T01:57:19.605Z,100536.27
2018-04-26T01:59:47.969Z,100533.06
2018-04-26T02:02:16.297Z,100530.42
2018-04-26T02:04:44.653Z,100524.29
2018-04-26T02:07:12.980Z,100527.09
2018-04-26T02:09:41.328Z,100529.34
2018-04-26T02:12:09.657Z,100532.77
2018-04-26T02:14:38.005Z,100535.77
2018-04-26T02:17:06.333Z,100534.14
2018-04-26T02:19:34.689Z,100531.70
2018-04-26T02:22:03.016Z,100541.11
2018-04-26T02:24:31.367Z,100539.80
2018-04-26T02:26:59.695Z,100538.89
2018-04-26T02:29:28.044Z,100541.38
2018-04-26T02:31:56.373Z,100532.27
2018-04-26T02:34:24.737Z,100532.19
2018-04-26T02:36:53.068Z,100528.34
2018-04-26T02:39:21.397Z,100528.29
2018-04-26T02:41:49.753Z,100529.41
2018-04-26T02:44:18.088Z,100523.41
2018-04-26T02:46:46.435Z,100527.05
2018-04-26T02:49:14.761Z,100524.31
2018-04-26T02:51:43.112Z,100526.89
2018-04-26T02:54:11.441Z,100520.08
2018-04-26T02:56:39.793Z,100528.50
2018-04-26T02:59:08.124Z,100530.60
2018-04-26T03:01:36.478Z,100522.17
2018-04-26T03:04:04.812Z,100525.88
2018-04-26T03:06:33.160Z,100521.95
2018-04-26T03:09:01.492Z,100524.50
2018-04-26T03:11:29.841Z,100515.48
2018-04-26T03:13:58.172Z,100518.45
2018-04-26T03:16:26.542Z,100521.81
2018-04-26T03:18:54.852Z,100521.87
2018-04-26T03:21:23.204Z,100520.66
2018-04-26T03:23:51.540Z,100520.66
2018-04-26T03:26:19.896Z,100524.15
2018-04-26T03:28:48.225Z,100521.69
2018-04-26T03:31:16.696Z,100521.05
2018-04-26T03:33:44.904Z,100521.94
2018-04-26T03:36:13.237Z,100520.34
2018-04-26T03:38:41.590Z,100531.87
2018-04-26T03:41:09.920Z,100520.30
2018-04-26T03:43:38.275Z,100522.95
2018-04-26T03:46:06.613Z,100526.48
2018-04-26T03:48:34.960Z,100534.32
2018-04-26T03:51:03.290Z,100529.34
2018-04-26T03:53:31.636Z,100543.22
2018-04-26T03:55:59.964Z,100540.02
2018-04-26T03:58:28.316Z,100548.77
2018-04-26T04:01:08.452Z,100551.39
2018-04-26T04:03:48.560Z,100551.95
2018-04-26T04:06:16.890Z,100545.77
2018-04-26T04:08:45.240Z,100547.53
2018-04-26T04:11:13.612Z,100551.73
2018-04-26T04:13:41.961Z,100550.44
2018-04-26T04:16:10.264Z,100551.68
2018-04-26T04:18:38.614Z,100552.20
2018-04-26T04:21:06.940Z,100560.34
2018-04-26T04:23:35.293Z,100561.66
2018-04-26T04:26:03.616Z,100562.96
2018-04-26T04:28:31.979Z,100568.97
2018-04-26T04:31:00.307Z,100572.94
2018-04-26T04:33:28.639Z,100576.97
2018-04-26T04:35:56.992Z,100580.39
2018-04-26T04:38:25.319Z,100578.80
2018-04-26T04:40:54.617Z,100590.86
2018-04-26T04:43:22.941Z,100593.91
2018-04-26T04:45:51.284Z,100587.61
2018-04-26T04:48:19.616Z,100583.11
2018-04-26T04:50:47.957Z,100582.80
2018-04-26T04:53:16.276Z,100585.96
2018-04-26T04:55:44.627Z,100583.03
2018-04-26T04:58:12.944Z,100591.98
2018-04-26T05:00:41.312Z,100591.17
2018-04-26T05:03:09.632Z,100598.94
2018-04-26T05:05:37.970Z,100601.97
2018-04-26T05:08:06.284Z,100593.41
2018-04-26T05:10:34.624Z,100591.23
2018-04-26T05:13:02.939Z,100592.61
2018-04-26T05:15:31.273Z,100596.00
2018-04-26T05:17:59.584Z,100598.08
2018-04-26T05:20:28.966Z,100600.39
2018-04-26T05:22:57.256Z,100600.75
2018-04-26T05:25:25.596Z,100600.70
2018-04-26T05:27:53.908Z,100601.17
2018-04-26T05:30:22.246Z,100601.14
2018-04-26T05:32:50.560Z,100602.08
2018-04-26T05:35:18.872Z,100603.73
2018-04-26T05:37:47.211Z,100611.83
2018-04-26T05:40:15.733Z,100608.43
2018-04-26T05:42:44.072Z,100616.91
2018-04-26T05:45:12.384Z,100623.33
2018-04-26T05:47:40.729Z,100620.61
2018-04-26T05:50:09.054Z,100627.99
2018-04-26T05:52:37.404Z,100633.73
2018-04-26T05:55:05.737Z,100636.64
2018-04-26T05:57:34.081Z,100632.33
2018-04-26T06:00:03.279Z,100629.78
2018-04-26T06:02:31.625Z,100628.55
2018-04-26T06:04:59.952Z,100631.05
2018-04-26T06:07:28.299Z,100633.92
2018-04-26T06:09:56.624Z,100635.14
2018-04-26T06:12:24.984Z,100638.06
2018-04-26T06:14:53.296Z,100644.72
2018-04-26T06:17:21.640Z,100645.92
2018-04-26T06:19:50.092Z,100653.11
2018-04-26T06:22:18.436Z,100660.66
2018-04-26T06:24:46.757Z,100661.33
2018-04-26T06:27:15.109Z,100665.12
2018-04-26T06:29:43.428Z,100668.70
2018-04-26T06:32:11.769Z,100673.42
2018-04-26T06:34:40.096Z,100676.45
2018-04-26T06:37:08.416Z,100674.31
2018-04-26T06:39:36.768Z,100675.67
2018-04-26T06:42:05.090Z,100680.31
2018-04-26T06:44:33.432Z,100688.77
2018-04-26T06:47:01.761Z,100687.48
2018-04-26T06:49:30.105Z,100687.44
2018-04-26T06:51:58.424Z,100690.09
2018-04-26T06:54:26.773Z,100693.95
2018-04-26T06:56:55.097Z,100695.97
2018-04-26T06:59:23.444Z,100696.33
2018-04-26T07:01:51.772Z,100694.55
2018-04-26T07:04:20.125Z,100706.94
2018-04-26T07:06:48.461Z,100700.11
2018-04-26T07:09:16.812Z,100694.45
2018-04-26T07:11:45.141Z,100705.66
2018-04-26T07:14:13.496Z,100705.23
2018-04-26T07:16:41.821Z,100707.61
2018-04-26T07:19:10.165Z,100703.15
2018-04-26T07:21:38.492Z,100717.71
2018-04-26T07:24:06.841Z,100717.70
2018-04-26T07:26:36.063Z,100715.94
2018-04-26T07:29:04.420Z,100715.81
2018-04-26T07:31:32.751Z,100717.09
2018-04-26T07:34:01.426Z,100720.02
2018-04-26T07:36:29.805Z,100724.01
2018-04-26T07:38:58.160Z,100726.14
2018-04-26T07:41:26.494Z,100727.63
2018-04-26T07:43:54.820Z,100724.47
2018-04-26T07:46:23.175Z,100729.89
2018-04-26T07:48:51.497Z,100737.91
2018-04-26T07:51:19.854Z,100733.22
2018-04-26T07:53:48.185Z,100731.11
2018-04-26T07:56:16.528Z,100740.54
2018-04-26T07:58:44.890Z,100736.03
2018-04-26T08:01:13.236Z,100740.01
2018-04-26T08:03:41.573Z,100737.20
2018-04-26T08:06:09.929Z,100745.53
2018-04-26T08:08:38.265Z,100754.93
2018-04-26T08:11:06.620Z,100752.53
2018-04-26T08:13:34.952Z,100750.22
2018-04-26T08:16:04.516Z,100753.74
2018-04-26T08:18:32.876Z,100752.57
2018-04-26T08:21:01.241Z,100757.07
2018-04-26T08:23:29.572Z,100756.93
2018-04-26T08:25:57.923Z,100765.32
2018-04-26T08:28:26.249Z,100766.63
2018-04-26T08:30:54.597Z,100769.66
2018-04-26T08:33:23.697Z,100773.98
2018-04-26T08:35:52.070Z,100773.05
2018-04-26T08:38:20.395Z,100773.58
2018-04-26T08:40:48.752Z,100766.50
2018-04-26T08:43:17.077Z,100769.05
2018-04-26T08:45:45.433Z,100781.37
2018-04-26T08:48:13.780Z,100785.83
2018-04-26T08:50:42.117Z,100791.44
2018-04-26T08:53:10.524Z,100797.81
2018-04-26T08:55:38.861Z,100802.80
2018-04-26T08:58:07.208Z,100803.28
2018-04-26T09:00:35.537Z,100809.34
2018-04-26T09:03:03.879Z,100816.11
2018-04-26T09:05:32.212Z,100816.33
2018-04-26T09:08:00.555Z,100821.92
2018-04-26T09:10:28.864Z,100821.07
2018-04-26T09:12:57.212Z,100824.38
2018-04-26T09:15:25.545Z,100828.77
2018-04-26T09:17:53.883Z,100825.58
2018-04-26T09:20:22.210Z,100830.65
2018-04-26T09:22:50.564Z,100827.39
2018-04-26T09:25:18.952Z,100824.56
2018-04-26T09:27:47.292Z,100828.64
2018-04-26T09:30:15.616Z,100834.58
2018-04-26T09:32:43.965Z,100837.84
2018-04-26T09:35:12.284Z,100830.03
2018-04-26T09:37:40.637Z,100833.89
2018-04-26T09:40:08.961Z,100830.48
2018-04-26T09:42:37.324Z,100832.88
2018-04-26T09:45:05.672Z,100826.69
2018-04-26T09:47:34.006Z,100823.19
2018-04-26T09:50:02.368Z,100818.56
2018-04-26T09:52:30.696Z,100819.89
2018-04-26T09:54:59.048Z,100815.95
2018-04-26T09:57:27.372Z,100815.73
2018-04-26T09:59:55.724Z,100814.30
2018-04-26T10:02:24.909Z,100812.25
2018-04-26T10:04:57.184Z,100813.59
2018-04-26T10:07:25.517Z,100816.70
2018-04-26T10:09:53.871Z,100809.92
2018-04-26T10:12:22.193Z,100807.98
2018-04-26T10:14:50.548Z,100805.61
2018-04-26T10:17:19.083Z,100815.91
2018-04-26T10:19:47.476Z,100808.33
2018-04-26T10:22:15.805Z,100804.61
2018-04-26T10:24:44.160Z,100808.45
2018-04-26T10:27:12.492Z,100795.53
2018-04-26T10:29:40.844Z,100800.20
2018-04-26T10:32:09.177Z,100805.09
2018-04-26T10:34:37.528Z,100812.28
2018-04-26T10:37:05.855Z,100804.42
2018-04-26T10:39:34.216Z,100808.34
2018-04-26T10:42:02.541Z,100798.48
2018-04-26T10:44:30.908Z,100807.27
2018-04-26T10:46:59.241Z,100807.27
2018-04-26T10:49:27.569Z,100809.19
2018-04-26T10:51:55.913Z,100799.32
2018-04-26T10:54:24.248Z,100804.86
2018-04-26T10:56:52.597Z,100815.26
2018-04-26T10:59:20.933Z,100811.31
2018-04-26T11:01:49.486Z,100812.76
2018-04-26T11:04:17.857Z,100815.69
2018-04-26T11:06:46.273Z,100815.78
2018-04-26T11:09:14.620Z,100808.69
2018-04-26T11:11:42.940Z,100803.41
2018-04-26T11:14:11.260Z,100802.41
2018-04-26T11:16:39.612Z,100806.59
2018-04-26T11:19:07.949Z,100810.76
2018-04-26T11:21:36.361Z,100810.73
2018-04-26T11:24:04.724Z,100806.09
2018-04-26T11:26:34.029Z,100818.43
2018-04-26T11:29:02.353Z,100828.43
2018-04-26T11:31:30.705Z,100810.89
2018-04-26T11:33:59.033Z,100828.30
2018-04-26T11:36:27.380Z,100858.65
2018-04-26T11:38:55.709Z,100877.25
2018-04-26T11:41:24.050Z,100876.55
2018-04-26T11:43:52.369Z,100871.16
2018-04-26T11:46:20.728Z,100858.36
2018-04-26T11:48:49.052Z,100857.83
2018-04-26T11:51:17.773Z,100854.43
2018-04-26T11:53:46.121Z,100851.98
2018-04-26T11:56:14.512Z,100847.04
2018-04-26T11:58:42.799Z,100842.69
2018-04-26T12:01:11.125Z,100841.36
2018-04-26T12:03:39.472Z,100840.06
2018-04-26T12:06:07.791Z,100825.08
2018-04-26T12:08:36.144Z,100834.73
2018-04-26T12:11:04.469Z,100829.58
2018-04-26T12:13:32.812Z,100828.19
2018-04-26T12:16:01.144Z,100831.42
2018-04-26T12:18:29.508Z,100820.84
2018-04-26T12:20:57.804Z,100830.37
2018-04-26T12:23:26.161Z,100817.52
2018-04-26T12:25:54.489Z,100828.78
2018-04-26T12:28:22.837Z,100826.46
2018-04-26T12:30:52.153Z,100811.03
2018-04-26T12:33:20.500Z,100821.27
2018-04-26T12:35:48.832Z,100815.80
2018-04-26T12:38:17.181Z,100828.58
2018-04-26T12:40:45.508Z,100821.81
2018-04-26T12:43:13.849Z,100817.41
2018-04-26T12:45:42.217Z,100822.60
2018-04-26T12:48:10.560Z,100811.65
2018-04-26T12:50:39.016Z,100819.94
2018-04-26T12:53:07.341Z,100820.41
2018-04-26T12:55:35.692Z,100819.63
2018-04-26T12:58:04.098Z,100812.52
2018-04-26T13:00:32.373Z,100815.95
2018-04-26T13:03:00.701Z,100808.76
2018-04-26T13:05:29.053Z,100806.09
2018-04-26T13:07:57.387Z,100825.05
2018-04-26T13:10:25.733Z,100833.05
2018-04-26T13:12:54.060Z,100852.23
2018-04-26T13:15:22.413Z,100859.52
2018-04-26T13:17:50.762Z,100867.17
2018-04-26T13:20:19.109Z,100879.00
2018-04-26T13:22:47.436Z,100888.22
2018-04-26T13:25:15.797Z,100903.59
2018-04-26T13:27:44.122Z,100915.69
2018-04-26T13:30:12.468Z,100921.54
2018-04-26T13:32:40.796Z,100931.91
2018-04-26T13:35:09.149Z,100931.42
2018-04-26T13:37:37.477Z,100937.39
2018-04-26T13:40:05.833Z,100924.71
2018-04-26T13:42:34.169Z,100923.71
2018-04-26T13:45:02.525Z,100925.88
2018-04-26T13:47:30.850Z,100920.29
2018-04-26T13:49:59.894Z,100918.20
2018-04-26T13:52:28.309Z,100912.63
2018-04-26T13:54:56.658Z,100924.30
2018-04-26T13:57:26.176Z,100923.51
2018-04-26T13:59:55.631Z,100926.62
2018-04-26T14:02:24.246Z,100924.52
2018-04-26T14:04:52.902Z,100926.18
2018-04-26T14:07:21.465Z,100925.42
2018-04-26T14:09:50.003Z,100952.28
2018-04-26T14:12:18.706Z,100950.60
2018-04-26T14:14:47.321Z,100946.36
2018-04-26T14:17:15.766Z,100948.71
2018-04-26T14:19:44.165Z,100936.09
2018-04-26T14:22:12.501Z,100937.83
2018-04-26T14:24:40.824Z,100937.03
2018-04-26T14:27:10.164Z,100935.56
2018-04-26T14:29:38.544Z,100940.05
2018-04-26T14:32:06.845Z,100940.77
2018-04-26T14:34:35.194Z,100939.91
2018-04-26T14:37:03.542Z,100939.66
2018-04-26T14:39:31.864Z,100937.05
2018-04-26T14:42:00.213Z,100938.78
2018-04-26T14:44:28.544Z,100932.53
2018-04-26T14:46:56.884Z,100931.69
2018-04-26T14:49:25.214Z,100945.58
2018-04-26T14:51:53.540Z,100946.70
2018-04-26T14:54:21.888Z,100950.61
2018-04-26T14:56:51.211Z,100986.55
2018-04-26T14:59:19.546Z,100983.57
2018-04-26T15:01:47.868Z,100987.25
2018-04-26T15:04:16.218Z,100992.23
2018-04-26T15:06:44.589Z,100969.24
2018-04-26T15:09:12.984Z,100957.11
2018-04-26T15:11:41.319Z,100941.07
2018-04-26T15:14:09.661Z,100920.12
2018-04-26T15:16:37.993Z,100923.88
2018-04-26T15:19:06.336Z,100929.55
2018-04-26T15:21:34.662Z,100924.50
2018-04-26T15:24:03.013Z,100915.48
2018-04-26T15:26:32.329Z,100921.98
2018-04-26T15:29:00.672Z,100920.31
2018-04-26T15:31:28.996Z,100919.00
2018-04-26T15:33:57.345Z,100910.26
2018-04-26T15:36:25.669Z,100911.37
2018-04-26T15:38:54.085Z,100913.50
2018-04-26T15:41:22.335Z,100918.00
2018-04-26T15:43:50.685Z,100914.72
2018-04-26T15:46:19.005Z,100913.79
2018-04-26T15:48:48.061Z,100920.69
2018-04-26T15:51:16.389Z,100921.16
2018-04-26T15:53:56.648Z,100923.02
2018-04-26T15:56:36.868Z,100920.76
2018-04-26T15:59:16.953Z,100925.82
2018-04-26T16:05:26.773Z,100930.23
2018-04-26T16:08:12.636Z,100935.98
2018-04-26T16:10:58.676Z,100924.23
2018-04-26T16:13:44.396Z,100925.41
2018-04-26T16:16:30.360Z,100925.59
2018-04-26T16:22:30.900Z,100930.20
2018-04-26T16:25:11.208Z,100934.01
2018-04-26T16:27:51.241Z,100938.44
2018-04-26T16:33:43.265Z,100937.09
2018-04-26T16:39:13.476Z,100909.16
2018-04-26T16:41:41.841Z,100892.86
2018-04-26T16:44:10.166Z,100903.06
2018-04-26T16:46:40.444Z,100914.38
2018-04-26T16:49:08.819Z,100917.63
2018-04-26T16:51:37.117Z,100913.59
2018-04-26T16:54:05.465Z,100910.52
2018-04-26T16:56:34.769Z,100913.59
2018-04-26T16:59:03.121Z,100908.88
2018-04-26T17:01:31.449Z,100914.80
2018-04-26T17:03:59.789Z,100911.08
2018-04-26T17:06:28.112Z,100912.58
2018-04-26T17:08:56.469Z,100919.30
2018-04-26T17:11:24.788Z,100926.42
2018-04-26T17:13:53.128Z,100923.00
2018-04-26T17:16:21.453Z,100927.91
2018-04-26T17:18:49.796Z,100935.47
2018-04-26T17:21:18.129Z,100936.76
2018-04-26T17:23:46.477Z,100943.69
2018-04-26T17:26:14.808Z,100933.34
2018-04-26T17:28:43.163Z,100936.98
2018-04-26T17:31:11.476Z,100943.61
2018-04-26T17:33:39.836Z,100948.34
2018-04-26T17:36:08.164Z,100950.30
2018-04-26T17:38:36.509Z,100960.50
2018-04-26T17:41:04.836Z,100969.22
2018-04-26T17:43:33.176Z,100969.67
2018-04-26T17:46:01.516Z,100977.72
2018-04-26T17:48:29.864Z,100989.30
2018-04-26T17:50:58.184Z,100994.88
2018-04-26T17:53:26.571Z,101001.09
2018-04-26T17:55:54.861Z,100991.06
2018-04-26T17:58:23.258Z,101000.92
2018-04-26T18:00:51.604Z,101002.06
2018-04-26T18:03:19.936Z,101004.66
2018-04-26T18:05:48.260Z,101006.38
2018-04-26T18:08:16.604Z,101003.30
2018-04-26T18:10:44.933Z,101003.27
2018-04-26T18:13:13.276Z,100996.00
2018-04-26T18:15:41.606Z,101005.53
2018-04-26T18:18:09.948Z,101001.81
2018-04-26T18:20:38.273Z,101010.66
2018-04-26T18:23:06.618Z,101011.67
2018-04-26T18:25:34.941Z,101015.50
2018-04-26T18:28:03.293Z,101018.45
2018-04-26T18:30:31.616Z,101022.46
2018-04-26T18:32:59.940Z,101022.46
2018-04-26T18:35:28.289Z,101026.20
2018-04-26T18:37:56.612Z,101023.70
2018-04-26T18:40:24.965Z,101031.13
2018-04-26T18:42:53.288Z,101030.88
2018-04-26T18:45:21.647Z,101038.05
2018-04-26T18:47:49.986Z,101043.05
2018-04-26T18:50:18.352Z,101046.28
2018-04-26T18:52:46.664Z,101057.77
2018-04-26T18:55:15.009Z,101055.33
2018-04-26T18:57:44.336Z,101059.87
2018-04-26T19:00:12.732Z,101055.41
2018-04-26T19:02:41.052Z,101062.12
2018-04-26T19:05:09.400Z,101061.36
2018-04-26T19:07:38.653Z,101063.56
2018-04-26T19:10:07.001Z,101062.29
2018-04-26T19:12:35.326Z,101067.75
2018-04-26T19:15:03.690Z,101070.20
2018-04-26T19:17:32.020Z,101067.98
2018-04-26T19:20:00.368Z,101068.90
2018-04-26T19:22:29.600Z,101064.39
2018-04-26T19:24:57.944Z,101065.77
2018-04-26T19:27:26.264Z,101066.63
2018-04-26T19:29:54.608Z,101070.66
2018-04-26T19:32:22.944Z,101066.65
2018-04-26T19:34:51.296Z,101071.50
2018-04-26T19:37:20.621Z,101071.63
2018-04-26T19:39:48.964Z,101068.01
2018-04-26T19:42:18.182Z,101066.39
2018-04-26T19:44:46.524Z,101079.91
2018-04-26T19:47:14.844Z,101076.52
2018-04-26T19:49:43.189Z,101074.44
2018-04-26T19:52:11.518Z,101080.38
2018-04-26T19:54:39.857Z,101072.25
2018-04-26T19:57:08.177Z,101070.55
2018-04-26T19:59:36.521Z,101074.02
2018-04-26T20:02:05.713Z,101067.51
2018-04-26T20:04:34.065Z,101065.88
2018-04-26T20:07:02.392Z,101060.37
2018-04-26T20:09:30.738Z,101065.45
2018-04-26T20:11:59.060Z,101063.31
2018-04-26T20:14:27.399Z,101061.30
2018-04-26T20:16:55.741Z,101058.28
2018-04-26T20:19:24.097Z,101061.59
2018-04-26T20:21:52.424Z,101066.73
2018-04-26T20:24:20.848Z,101060.31
2018-04-26T20:26:50.139Z,101064.22
2018-04-26T20:29:18.495Z,101065.14
2018-04-26T20:31:46.816Z,101058.34
2018-04-26T20:34:15.189Z,101056.65
2018-04-26T20:36:44.439Z,101068.26
2018-04-26T20:39:12.769Z,101068.36
2018-04-26T20:41:57.014Z,101069.72
2018-04-26T20:44:37.204Z,101057.75
2018-04-26T20:47:05.536Z,101054.27
2018-04-26T20:49:33.888Z,101059.81
2018-04-26T20:52:02.238Z,101057.19
2018-04-26T20:54:30.583Z,101061.00
2018-04-26T20:56:58.912Z,101057.94
2018-04-26T20:59:27.274Z,101065.14
2018-04-26T21:01:55.600Z,101068.51
2018-04-26T21:04:23.932Z,101068.13
2018-04-26T21:06:52.281Z,101073.69
2018-04-26T21:09:20.604Z,101076.19
2018-04-26T21:11:48.956Z,101073.95
2018-04-26T21:14:17.278Z,101074.80
2018-04-26T21:16:45.624Z,101074.84
2018-04-26T21:19:13.948Z,101072.88
2018-04-26T21:21:42.296Z,101075.66
2018-04-26T21:24:10.640Z,101083.86
2018-04-26T21:26:38.984Z,101087.13
2018-04-26T21:29:07.398Z,101078.28
2018-04-26T21:31:35.660Z,101077.00
2018-04-26T21:34:03.985Z,101070.54
2018-04-26T21:36:32.396Z,101085.09
2018-04-26T21:39:00.716Z,101077.48
2018-04-26T21:41:29.064Z,101072.94
2018-04-26T21:43:57.388Z,101078.95
2018-04-26T21:46:25.736Z,101075.17
2018-04-26T21:48:54.076Z,101079.20
2018-04-26T21:51:28.004Z,101079.77
2018-04-26T21:54:02.044Z,101083.16
2018-04-26T21:56:36.636Z,101068.30
2018-04-26T21:59:10.674Z,101070.95
2018-04-26T22:01:44.584Z,101070.62
2018-04-26T22:04:16.272Z,101078.00
2018-04-26T22:06:44.620Z,101078.95
2018-04-26T22:09:12.964Z,101075.66
2018-04-26T22:11:41.313Z,101078.73
2018-04-26T22:14:09.652Z,101080.91
2018-04-26T22:16:37.989Z,101080.05
2018-04-26T22:19:06.321Z,101070.62
2018-04-26T22:21:34.678Z,101076.97
2018-04-26T22:24:03.013Z,101079.49
2018-04-26T22:26:31.360Z,101073.56
2018-04-26T22:28:59.689Z,101080.90
2018-04-26T22:31:28.038Z,101074.11
2018-04-26T22:33:56.361Z,101079.70
2018-04-26T22:36:24.979Z,101072.05
2018-04-26T22:38:53.384Z,101078.00
2018-04-26T22:41:21.720Z,101082.69
2018-04-26T22:43:50.052Z,101086.09
2018-04-26T22:46:18.507Z,101088.66
2018-04-26T22:48:46.872Z,101081.83
2018-04-26T22:51:15.228Z,101082.69
2018-04-26T22:53:43.560Z,101083.54
2018-04-26T22:56:11.919Z,101078.49
2018-04-26T22:58:40.248Z,101085.75
2018-04-26T23:01:09.497Z,101084.94
2018-04-26T23:03:37.828Z,101082.13
2018-04-26T23:06:06.188Z,101086.08
2018-04-26T23:08:34.528Z,101083.91
2018-04-26T23:11:02.889Z,101085.19
2018-04-26T23:13:31.225Z,101095.48
2018-04-26T23:15:59.581Z,101089.91
2018-04-26T23:18:28.861Z,101095.45
2018-04-26T23:20:57.218Z,101096.38
2018-04-26T23:23:25.554Z,101095.09
2018-04-26T23:25:53.920Z,101087.84
2018-04-26T23:28:22.252Z,101090.41
2018-04-26T23:30:50.588Z,101093.31
2018-04-26T23:33:18.949Z,101097.13
2018-04-26T23:35:47.322Z,101095.95
2018-04-26T23:38:15.640Z,101096.07
2018-04-26T23:40:43.981Z,101102.47
2018-04-26T23:43:12.332Z,101101.19
2018-04-26T23:45:40.660Z,101097.44
2018-04-26T23:48:09.115Z,101098.77
2018-04-26T23:50:37.451Z,101092.47
2018-04-26T23:53:05.799Z,101100.59
2018-04-26T23:55:34.132Z,101096.76
2018-04-26T23:58:02.477Z,101090.36
